createdAt,value
2018-11-07T00:02:35.819Z,3.73
2018-11-07T00:07:34.186Z,4.03
2018-11-07T00:12:50.411Z,3.50
2018-11-07T00:17:48.896Z,3.70
2018-11-07T00:22:47.377Z,3.73
2018-11-07T00:27:45.758Z,3.77
2018-11-07T00:32:44.168Z,3.50
2018-11-07T00:37:43.222Z,3.70
2018-11-07T00:42:41.701Z,3.30
2018-11-07T00:47:40.061Z,3.47
2018-11-07T00:52:38.480Z,3.30
2018-11-07T00:57:36.950Z,3.90
2018-11-07T01:02:35.508Z,3.60
2018-11-07T01:07:33.850Z,4.07
2018-11-07T01:12:32.301Z,4.10
2018-11-07T01:17:30.681Z,3.63
2018-11-07T01:22:29.858Z,3.70
2018-11-07T01:27:28.593Z,3.90
2018-11-07T01:32:27.177Z,4.03
2018-11-07T01:37:25.523Z,3.50
2018-11-07T01:42:24.835Z,3.87
2018-11-07T01:47:23.285Z,3.70
2018-11-07T01:52:21.713Z,3.80
2018-11-07T01:57:20.200Z,3.70
2018-11-07T02:02:18.690Z,4.03
2018-11-07T02:07:17.083Z,3.73
2018-11-07T02:12:15.460Z,3.60
2018-11-07T02:17:13.814Z,3.60
2018-11-07T02:22:12.277Z,3.80
2018-11-07T02:27:10.693Z,3.53
2018-11-07T02:32:09.168Z,3.97
2018-11-07T02:37:07.704Z,3.70
2018-11-07T02:42:06.208Z,3.60
2018-11-07T02:47:04.666Z,3.27
2018-11-07T02:52:03.067Z,3.27
2018-11-07T02:57:01.466Z,3.70
2018-11-07T03:01:59.971Z,3.57
2018-11-07T03:06:58.336Z,3.63
2018-11-07T03:11:56.746Z,3.63
2018-11-07T03:16:55.101Z,3.50
2018-11-07T03:21:53.553Z,2.90
2018-11-07T03:26:51.993Z,3.60
2018-11-07T03:31:50.444Z,3.13
2018-11-07T03:36:48.799Z,3.27
2018-11-07T03:41:47.270Z,3.37
2018-11-07T03:46:45.639Z,2.90
2018-11-07T03:51:44.035Z,3.00
2018-11-07T03:56:42.389Z,3.20
2018-11-07T04:01:41.099Z,3.27
2018-11-07T04:06:39.623Z,3.37
2018-11-07T04:11:38.129Z,3.30
2018-11-07T04:16:36.632Z,3.60
2018-11-07T04:21:35.063Z,3.40
2018-11-07T04:26:34.668Z,3.07
2018-11-07T04:31:33.161Z,3.27
2018-11-07T04:36:31.536Z,3.30
2018-11-07T04:41:29.969Z,3.00
2018-11-07T04:46:28.448Z,2.77
2018-11-07T04:51:26.835Z,3.00
2018-11-07T04:56:25.232Z,3.53
2018-11-07T05:01:23.636Z,2.83
2018-11-07T05:06:22.072Z,3.00
2018-11-07T05:11:20.533Z,3.07
2018-11-07T05:16:18.893Z,2.77
2018-11-07T05:21:17.318Z,3.10
2018-11-07T05:26:15.771Z,2.70
2018-11-07T05:31:14.110Z,2.90
2018-11-07T05:36:12.539Z,2.40
2018-11-07T05:41:11.105Z,2.47
2018-11-07T05:46:09.372Z,3.00
2018-11-07T05:51:07.784Z,2.70
2018-11-07T05:56:06.146Z,2.90
2018-11-07T06:01:04.702Z,2.57
2018-11-07T06:06:03.076Z,2.70
2018-11-07T06:11:01.482Z,2.60
2018-11-07T06:16:00.012Z,2.40
2018-11-07T06:20:58.405Z,2.00
2018-11-07T06:25:56.804Z,2.67
2018-11-07T06:30:55.281Z,2.67
2018-11-07T06:35:53.689Z,2.83
2018-11-07T06:40:52.105Z,2.30
2018-11-07T06:45:50.581Z,2.30
2018-11-07T06:50:48.976Z,2.33
2018-11-07T06:55:47.433Z,2.30
2018-11-07T07:00:45.768Z,2.23
2018-11-07T07:05:44.350Z,2.47
2018-11-07T07:10:42.761Z,2.20
2018-11-07T07:15:41.147Z,2.47
2018-11-07T07:20:39.559Z,2.40
2018-11-07T07:25:37.968Z,2.30
2018-11-07T07:30:36.490Z,2.03
2018-11-07T07:35:34.759Z,2.30
2018-11-07T07:40:33.144Z,2.00
2018-11-07T07:45:31.626Z,2.10
2018-11-07T07:50:30.037Z,1.97
2018-11-07T07:55:28.429Z,2.23
2018-11-07T08:00:26.841Z,2.00
2018-11-07T08:05:25.235Z,1.83
2018-11-07T08:10:23.628Z,2.23
2018-11-07T08:15:22.062Z,1.80
2018-11-07T08:20:20.553Z,2.10
2018-11-07T08:25:18.909Z,1.97
2018-11-07T08:30:18.685Z,1.90
2018-11-07T08:35:19.409Z,1.87
2018-11-07T08:40:21.026Z,2.30
2018-11-07T08:45:19.541Z,2.30
2018-11-07T08:50:19.245Z,2.43
2018-11-07T08:55:19.887Z,2.03
2018-11-07T09:00:19.605Z,1.90
2018-11-07T09:05:19.131Z,1.90
2018-11-07T09:10:18.969Z,1.50
2018-11-07T09:15:18.608Z,1.73
2018-11-07T09:20:20.265Z,1.93
2018-11-07T09:25:18.760Z,1.70
2018-11-07T09:30:19.730Z,1.70
2018-11-07T09:35:18.520Z,1.70
2018-11-07T09:40:18.306Z,1.83
2018-11-07T09:45:18.101Z,1.60
2018-11-07T09:50:17.334Z,1.60
2018-11-07T09:55:18.222Z,1.73
2018-11-07T10:00:18.822Z,1.60
2018-11-07T10:05:18.593Z,1.70
2018-11-07T10:10:18.502Z,1.50
2018-11-07T10:15:17.145Z,1.57
2018-11-07T10:20:19.919Z,1.93
2018-11-07T10:25:18.493Z,1.40
2018-11-07T10:30:18.337Z,1.20
2018-11-07T10:35:16.557Z,1.93
2018-11-07T10:40:16.461Z,1.60
2018-11-07T10:45:14.961Z,1.60
2018-11-07T10:50:14.443Z,1.50
2018-11-07T10:55:13.978Z,1.57
2018-11-07T11:00:18.332Z,1.50
2018-11-07T11:05:18.173Z,1.57
2018-11-07T11:10:16.554Z,1.20
2018-11-07T11:15:15.845Z,1.43
2018-11-07T11:20:14.669Z,1.50
2018-11-07T11:25:13.143Z,1.37
2018-11-07T11:30:11.517Z,1.63
2018-11-07T11:35:11.149Z,1.73
2018-11-07T11:40:11.947Z,1.70
2018-11-07T11:45:11.953Z,1.43
2018-11-07T11:50:12.522Z,1.10
2018-11-07T11:55:11.215Z,1.30
2018-11-07T12:00:10.975Z,1.43
2018-11-07T12:05:10.770Z,1.30
2018-11-07T12:10:15.271Z,1.17
2018-11-07T12:15:14.089Z,1.17
2018-11-07T12:20:12.629Z,1.47
2018-11-07T12:25:12.186Z,1.40
2018-11-07T12:30:12.219Z,1.27
2018-11-07T12:35:10.741Z,1.50
2018-11-07T12:40:09.886Z,1.40
2018-11-07T12:45:09.015Z,1.30
2018-11-07T12:50:08.509Z,1.33
2018-11-07T12:55:07.453Z,1.17
2018-11-07T13:00:07.914Z,0.90
2018-11-07T13:05:06.691Z,1.13
2018-11-07T13:10:06.510Z,1.40
2018-11-07T13:15:05.522Z,1.10
2018-11-07T13:20:04.612Z,1.40
2018-11-07T13:25:04.098Z,1.07
2018-11-07T13:30:02.469Z,1.30
2018-11-07T13:35:00.981Z,1.43
2018-11-07T13:39:59.326Z,1.20
2018-11-07T13:44:57.726Z,1.20
2018-11-07T13:49:56.135Z,1.17
2018-11-07T13:54:54.533Z,1.17
2018-11-07T14:05:16.746Z,1.23
2018-11-07T14:10:19.103Z,1.17
2018-11-07T14:15:17.580Z,1.40
2018-11-07T14:20:16.098Z,1.30
2018-11-07T14:25:14.736Z,1.23
2018-11-07T14:30:15.590Z,1.17
2018-11-07T14:35:14.061Z,1.17
2018-11-07T14:40:12.562Z,1.30
2018-11-07T14:45:11.700Z,1.23
2018-11-07T14:50:11.008Z,1.43
2018-11-07T14:55:10.471Z,1.37
2018-11-07T15:00:09.656Z,1.10
2018-11-07T15:05:09.198Z,1.50
2018-11-07T15:10:08.033Z,1.33
2018-11-07T15:15:07.247Z,1.30
2018-11-07T15:20:06.069Z,1.37
2018-11-07T15:25:05.816Z,1.30
2018-11-07T15:30:04.301Z,1.37
2018-11-07T15:42:25.233Z,1.30
2018-11-07T15:47:23.578Z,1.10
2018-11-07T15:52:21.982Z,1.07
2018-11-07T15:57:20.410Z,1.10
2018-11-07T16:02:18.893Z,1.10
2018-11-07T16:07:17.297Z,1.33
2018-11-07T16:12:15.757Z,1.00
2018-11-07T16:17:14.168Z,1.20
2018-11-07T16:22:12.572Z,1.10
2018-11-07T16:27:10.960Z,1.43
2018-11-07T16:32:09.374Z,1.20
2018-11-07T16:37:07.770Z,1.30
2018-11-07T16:42:06.250Z,1.23
2018-11-07T16:47:04.732Z,1.40
2018-11-07T16:52:03.161Z,1.20
2018-11-07T16:57:01.591Z,1.10
2018-11-07T17:02:00.139Z,1.20
2018-11-07T17:06:58.560Z,1.30
2018-11-07T17:11:56.969Z,1.20
2018-11-07T17:16:55.483Z,1.20
2018-11-07T17:21:54.000Z,1.10
2018-11-07T17:26:52.516Z,1.00
2018-11-07T17:31:50.986Z,1.37
2018-11-07T17:36:49.492Z,1.00
2018-11-07T17:41:47.933Z,1.50
2018-11-07T17:46:46.285Z,1.20
2018-11-07T17:51:44.667Z,1.30
2018-11-07T17:56:43.186Z,1.57
2018-11-07T18:01:41.426Z,0.90
2018-11-07T18:06:39.846Z,1.40
2018-11-07T18:11:38.404Z,1.20
2018-11-07T18:16:36.789Z,1.57
2018-11-07T18:21:35.251Z,1.10
2018-11-07T18:26:33.648Z,1.30
2018-11-07T18:31:32.108Z,1.20
2018-11-07T18:36:30.606Z,1.20
2018-11-07T18:41:28.977Z,1.23
2018-11-07T18:46:27.373Z,1.13
2018-11-07T18:51:25.803Z,1.00
2018-11-07T18:56:24.187Z,1.20
2018-11-07T19:01:22.603Z,1.33
2018-11-07T19:06:21.766Z,1.20
2018-11-07T19:11:20.299Z,1.10
2018-11-07T19:16:18.708Z,0.90
2018-11-07T19:21:17.070Z,1.23
2018-11-07T19:26:15.429Z,1.30
2018-11-07T19:31:13.899Z,1.20
2018-11-07T19:36:12.266Z,1.30
2018-11-07T19:41:10.652Z,1.10
2018-11-07T19:46:09.010Z,1.27
2018-11-07T19:51:08.016Z,1.40
2018-11-07T19:56:06.453Z,1.20
2018-11-07T20:01:05.157Z,1.00
2018-11-07T20:06:03.708Z,1.10
2018-11-07T20:11:02.243Z,1.33
2018-11-07T20:16:01.004Z,1.10
2018-11-07T20:20:59.417Z,1.10
2018-11-07T20:25:57.793Z,1.07
2018-11-07T20:30:56.259Z,0.93
2018-11-07T20:35:55.574Z,0.90
2018-11-07T20:40:53.798Z,1.10
2018-11-07T20:45:52.229Z,1.30
2018-11-07T20:50:50.594Z,1.17
2018-11-07T20:55:48.993Z,1.37
2018-11-07T21:00:47.473Z,1.20
2018-11-07T21:05:45.897Z,1.17
2018-11-07T21:10:44.384Z,1.27
2018-11-07T21:15:42.739Z,1.30
2018-11-07T21:20:41.180Z,1.20
2018-11-07T21:25:39.547Z,1.20
2018-11-07T21:30:37.921Z,1.03
2018-11-07T21:35:36.297Z,0.97
2018-11-07T21:40:34.681Z,1.20
2018-11-07T21:45:33.078Z,1.10
2018-11-07T21:50:31.542Z,1.10
2018-11-07T21:55:29.902Z,1.13
2018-11-07T22:00:28.356Z,1.27
2018-11-07T22:05:26.836Z,1.50
2018-11-07T22:10:25.247Z,1.10
2018-11-07T22:15:23.648Z,1.20
2018-11-07T22:20:22.179Z,1.07
2018-11-07T22:25:20.632Z,1.10
2018-11-07T22:30:19.059Z,1.03
2018-11-07T22:35:18.183Z,1.30
2018-11-07T22:40:17.834Z,0.97
2018-11-07T22:45:16.328Z,1.10
2018-11-07T22:50:15.529Z,1.12
2018-11-07T22:55:13.969Z,1.20
2018-11-07T23:00:21.611Z,1.63
2018-11-07T23:05:20.149Z,1.12
2018-11-07T23:10:19.539Z,1.30
2018-11-07T23:15:23.417Z,0.90
2018-11-07T23:20:21.858Z,1.30
2018-11-07T23:25:20.269Z,1.10
2018-11-07T23:30:18.628Z,1.23
2018-11-07T23:35:17.042Z,1.10
2018-11-07T23:40:15.413Z,1.10
2018-11-07T23:45:13.780Z,1.40
2018-11-07T23:50:12.143Z,1.17
2018-11-07T23:55:10.513Z,1.23
